sensor_id;sensor_type;location;lat;lon;timestamp;P1;durP1;ratioP1;P2;durP2;ratioP2
65073;SDS011;52218;51.224;-2.328;2022-10-16T00:01:11;6.28;;;1.20;;
65073;SDS011;52218;51.224;-2.328;2022-10-16T00:04:54;4.45;;;1.00;;
65073;SDS011;52218;51.224;-2.328;2022-10-16T00:08:37;7.50;;;1.40;;
65073;SDS011;52218;51.224;-2.328;2022-10-16T00:12:19;6.93;;;1.27;;
65073;SDS011;52218;51.224;-2.328;2022-10-16T00:16:01;4.60;;;1.10;;
65073;SDS011;52218;51.224;-2.328;2022-10-16T00:19:44;7.68;;;1.63;;
65073;SDS011;52218;51.224;-2.328;2022-10-16T00:23:26;8.35;;;1.50;;
65073;SDS011;52218;51.224;-2.328;2022-10-16T00:27:08;5.85;;;1.30;;
65073;SDS011;52218;51.224;-2.328;2022-10-16T00:30:50;6.00;;;1.35;;
65073;SDS011;52218;51.224;-2.328;2022-10-16T00:34:32;6.63;;;1.50;;
65073;SDS011;52218;51.224;-2.328;2022-10-16T00:38:14;5.97;;;1.00;;
65073;SDS011;52218;51.224;-2.328;2022-10-16T00:41:56;6.78;;;1.38;;
65073;SDS011;52218;51.224;-2.328;2022-10-16T00:45:38;5.07;;;1.08;;
65073;SDS011;52218;51.224;-2.328;2022-10-16T00:49:20;6.20;;;1.02;;
65073;SDS011;52218;51.224;-2.328;2022-10-16T00:53:02;8.15;;;1.40;;
65073;SDS011;52218;51.224;-2.328;2022-10-16T00:56:45;9.00;;;1.25;;
65073;SDS011;52218;51.224;-2.328;2022-10-16T01:00:27;5.88;;;0.90;;
65073;SDS011;52218;51.224;-2.328;2022-10-16T01:04:09;4.47;;;1.00;;
65073;SDS011;52218;51.224;-2.328;2022-10-16T01:08:04;3.70;;;0.75;;
65073;SDS011;52218;51.224;-2.328;2022-10-16T01:12:00;3.85;;;1.05;;
65073;SDS011;52218;51.224;-2.328;2022-10-16T01:16:09;3.60;;;0.68;;
65073;SDS011;52218;51.224;-2.328;2022-10-16T01:20:06;4.35;;;0.80;;
65073;SDS011;52218;51.224;-2.328;2022-10-16T01:24:11;3.65;;;0.73;;
65073;SDS011;52218;51.224;-2.328;2022-10-16T01:28:17;3.85;;;0.90;;
65073;SDS011;52218;51.224;-2.328;2022-10-16T01:36:20;4.65;;;1.02;;
65073;SDS011;52218;51.224;-2.328;2022-10-16T01:40:11;2.75;;;0.90;;
65073;SDS011;52218;51.224;-2.328;2022-10-16T01:44:00;3.10;;;0.63;;
65073;SDS011;52218;51.224;-2.328;2022-10-16T01:47:47;5.30;;;0.93;;
65073;SDS011;52218;51.224;-2.328;2022-10-16T01:51:30;3.80;;;0.93;;
65073;SDS011;52218;51.224;-2.328;2022-10-16T01:55:28;7.07;;;1.02;;
65073;SDS011;52218;51.224;-2.328;2022-10-16T01:59:14;4.05;;;0.98;;
65073;SDS011;52218;51.224;-2.328;2022-10-16T02:02:58;6.10;;;1.00;;
65073;SDS011;52218;51.224;-2.328;2022-10-16T02:06:44;5.78;;;1.13;;
65073;SDS011;52218;51.224;-2.328;2022-10-16T02:10:26;6.40;;;1.50;;
65073;SDS011;52218;51.224;-2.328;2022-10-16T02:17:54;5.13;;;1.02;;
65073;SDS011;52218;51.224;-2.328;2022-10-16T02:25:31;5.68;;;0.90;;
65073;SDS011;52218;51.224;-2.328;2022-10-16T02:29:17;3.33;;;0.88;;
65073;SDS011;52218;51.224;-2.328;2022-10-16T02:33:06;5.63;;;1.02;;
65073;SDS011;52218;51.224;-2.328;2022-10-16T02:36:50;3.80;;;0.90;;
65073;SDS011;52218;51.224;-2.328;2022-10-16T02:40:33;5.57;;;1.15;;
65073;SDS011;52218;51.224;-2.328;2022-10-16T02:44:16;4.60;;;1.08;;
65073;SDS011;52218;51.224;-2.328;2022-10-16T02:47:58;5.25;;;1.02;;
65073;SDS011;52218;51.224;-2.328;2022-10-16T02:51:40;4.07;;;1.00;;
65073;SDS011;52218;51.224;-2.328;2022-10-16T02:55:22;4.97;;;0.85;;
65073;SDS011;52218;51.224;-2.328;2022-10-16T02:59:04;3.80;;;0.70;;
65073;SDS011;52218;51.224;-2.328;2022-10-16T03:02:46;5.55;;;1.00;;
65073;SDS011;52218;51.224;-2.328;2022-10-16T03:06:28;5.28;;;1.20;;
65073;SDS011;52218;51.224;-2.328;2022-10-16T03:10:10;6.35;;;1.23;;
65073;SDS011;52218;51.224;-2.328;2022-10-16T03:13:52;3.28;;;0.95;;
65073;SDS011;52218;51.224;-2.328;2022-10-16T03:17:34;4.88;;;0.85;;
65073;SDS011;52218;51.224;-2.328;2022-10-16T03:21:16;6.32;;;1.10;;
65073;SDS011;52218;51.224;-2.328;2022-10-16T03:24:58;5.65;;;1.10;;
65073;SDS011;52218;51.224;-2.328;2022-10-16T03:28:40;5.82;;;1.02;;
65073;SDS011;52218;51.224;-2.328;2022-10-16T03:32:22;7.85;;;0.95;;
65073;SDS011;52218;51.224;-2.328;2022-10-16T03:36:06;4.80;;;0.98;;
65073;SDS011;52218;51.224;-2.328;2022-10-16T03:39:48;5.65;;;1.00;;
65073;SDS011;52218;51.224;-2.328;2022-10-16T03:43:30;5.43;;;1.27;;
65073;SDS011;52218;51.224;-2.328;2022-10-16T03:47:11;5.30;;;0.90;;
65073;SDS011;52218;51.224;-2.328;2022-10-16T03:50:53;6.35;;;1.10;;
65073;SDS011;52218;51.224;-2.328;2022-10-16T03:54:36;4.50;;;0.82;;
65073;SDS011;52218;51.224;-2.328;2022-10-16T03:58:17;4.63;;;1.40;;
65073;SDS011;52218;51.224;-2.328;2022-10-16T04:02:01;5.93;;;0.98;;
65073;SDS011;52218;51.224;-2.328;2022-10-16T04:05:43;3.90;;;1.00;;
65073;SDS011;52218;51.224;-2.328;2022-10-16T04:09:25;4.93;;;1.08;;
65073;SDS011;52218;51.224;-2.328;2022-10-16T04:13:07;3.97;;;0.85;;
65073;SDS011;52218;51.224;-2.328;2022-10-16T04:16:49;5.22;;;0.90;;
65073;SDS011;52218;51.224;-2.328;2022-10-16T04:20:30;4.13;;;1.10;;
65073;SDS011;52218;51.224;-2.328;2022-10-16T04:24:13;5.55;;;1.10;;
65073;SDS011;52218;51.224;-2.328;2022-10-16T04:27:54;3.45;;;0.93;;
65073;SDS011;52218;51.224;-2.328;2022-10-16T04:31:36;3.60;;;0.90;;
65073;SDS011;52218;51.224;-2.328;2022-10-16T04:35:18;4.40;;;1.00;;
65073;SDS011;52218;51.224;-2.328;2022-10-16T04:39:02;5.35;;;1.25;;
65073;SDS011;52218;51.224;-2.328;2022-10-16T04:42:44;4.38;;;1.00;;
65073;SDS011;52218;51.224;-2.328;2022-10-16T04:46:26;5.75;;;1.30;;
65073;SDS011;52218;51.224;-2.328;2022-10-16T04:50:08;6.38;;;1.25;;
65073;SDS011;52218;51.224;-2.328;2022-10-16T04:53:50;5.30;;;1.50;;
65073;SDS011;52218;51.224;-2.328;2022-10-16T04:57:34;4.80;;;0.90;;
65073;SDS011;52218;51.224;-2.328;2022-10-16T05:01:15;7.10;;;1.20;;
65073;SDS011;52218;51.224;-2.328;2022-10-16T05:04:57;7.25;;;1.33;;
65073;SDS011;52218;51.224;-2.328;2022-10-16T05:08:39;4.38;;;1.10;;
65073;SDS011;52218;51.224;-2.328;2022-10-16T05:12:21;4.05;;;0.90;;
65073;SDS011;52218;51.224;-2.328;2022-10-16T05:16:03;7.82;;;1.08;;
65073;SDS011;52218;51.224;-2.328;2022-10-16T05:19:45;5.53;;;1.30;;
65073;SDS011;52218;51.224;-2.328;2022-10-16T05:23:27;7.15;;;1.30;;
65073;SDS011;52218;51.224;-2.328;2022-10-16T05:27:09;6.22;;;1.38;;
65073;SDS011;52218;51.224;-2.328;2022-10-16T05:30:52;5.07;;;1.10;;
65073;SDS011;52218;51.224;-2.328;2022-10-16T05:34:34;4.95;;;1.00;;
65073;SDS011;52218;51.224;-2.328;2022-10-16T05:38:17;7.30;;;1.10;;
65073;SDS011;52218;51.224;-2.328;2022-10-16T05:41:59;6.07;;;1.55;;
65073;SDS011;52218;51.224;-2.328;2022-10-16T05:45:41;10.38;;;1.50;;
65073;SDS011;52218;51.224;-2.328;2022-10-16T05:49:23;4.95;;;1.08;;
65073;SDS011;52218;51.224;-2.328;2022-10-16T05:53:05;6.57;;;1.20;;
65073;SDS011;52218;51.224;-2.328;2022-10-16T05:56:47;8.65;;;1.63;;
65073;SDS011;52218;51.224;-2.328;2022-10-16T06:00:29;5.80;;;1.33;;
65073;SDS011;52218;51.224;-2.328;2022-10-16T06:04:11;7.15;;;1.17;;
65073;SDS011;52218;51.224;-2.328;2022-10-16T06:07:53;8.02;;;1.25;;
65073;SDS011;52218;51.224;-2.328;2022-10-16T06:11:34;10.05;;;1.20;;
65073;SDS011;52218;51.224;-2.328;2022-10-16T06:15:17;4.80;;;0.93;;
65073;SDS011;52218;51.224;-2.328;2022-10-16T06:18:59;5.88;;;1.25;;
65073;SDS011;52218;51.224;-2.328;2022-10-16T06:22:41;6.03;;;1.30;;
65073;SDS011;52218;51.224;-2.328;2022-10-16T06:26:25;6.20;;;1.30;;
65073;SDS011;52218;51.224;-2.328;2022-10-16T06:30:08;9.63;;;2.08;;
65073;SDS011;52218;51.224;-2.328;2022-10-16T06:33:51;14.77;;;1.40;;
65073;SDS011;52218;51.224;-2.328;2022-10-16T06:37:33;7.97;;;1.20;;
65073;SDS011;52218;51.224;-2.328;2022-10-16T06:41:16;9.85;;;1.20;;
65073;SDS011;52218;51.224;-2.328;2022-10-16T06:44:59;8.57;;;1.35;;
65073;SDS011;52218;51.224;-2.328;2022-10-16T06:48:42;12.07;;;1.60;;
65073;SDS011;52218;51.224;-2.328;2022-10-16T06:52:24;6.20;;;1.55;;
65073;SDS011;52218;51.224;-2.328;2022-10-16T06:56:10;11.02;;;1.95;;
65073;SDS011;52218;51.224;-2.328;2022-10-16T06:59:52;5.38;;;1.10;;
65073;SDS011;52218;51.224;-2.328;2022-10-16T07:03:36;9.80;;;1.48;;
65073;SDS011;52218;51.224;-2.328;2022-10-16T07:07:19;6.25;;;1.30;;
65073;SDS011;52218;51.224;-2.328;2022-10-16T07:11:01;4.82;;;1.30;;
65073;SDS011;52218;51.224;-2.328;2022-10-16T07:14:47;8.55;;;1.52;;
65073;SDS011;52218;51.224;-2.328;2022-10-16T07:18:30;5.72;;;1.55;;
65073;SDS011;52218;51.224;-2.328;2022-10-16T07:22:13;5.80;;;1.50;;
65073;SDS011;52218;51.224;-2.328;2022-10-16T07:25:55;7.00;;;1.30;;
65073;SDS011;52218;51.224;-2.328;2022-10-16T07:29:37;4.80;;;1.00;;
65073;SDS011;52218;51.224;-2.328;2022-10-16T07:33:19;8.60;;;1.67;;
65073;SDS011;52218;51.224;-2.328;2022-10-16T07:37:02;7.38;;;1.50;;
65073;SDS011;52218;51.224;-2.328;2022-10-16T07:40:43;5.82;;;1.23;;
65073;SDS011;52218;51.224;-2.328;2022-10-16T07:44:25;6.18;;;1.42;;
65073;SDS011;52218;51.224;-2.328;2022-10-16T07:48:07;5.50;;;1.17;;
65073;SDS011;52218;51.224;-2.328;2022-10-16T07:51:49;7.43;;;1.30;;
65073;SDS011;52218;51.224;-2.328;2022-10-16T07:55:31;5.47;;;1.33;;
65073;SDS011;52218;51.224;-2.328;2022-10-16T07:59:13;6.53;;;1.70;;
65073;SDS011;52218;51.224;-2.328;2022-10-16T08:02:56;5.10;;;1.25;;
65073;SDS011;52218;51.224;-2.328;2022-10-16T08:06:41;7.43;;;1.63;;
65073;SDS011;52218;51.224;-2.328;2022-10-16T08:10:24;7.60;;;1.02;;
65073;SDS011;52218;51.224;-2.328;2022-10-16T08:14:07;5.68;;;1.20;;
65073;SDS011;52218;51.224;-2.328;2022-10-16T08:18:00;4.65;;;1.02;;
65073;SDS011;52218;51.224;-2.328;2022-10-16T08:21:46;6.75;;;1.48;;
65073;SDS011;52218;51.224;-2.328;2022-10-16T08:25:29;5.32;;;1.30;;
65073;SDS011;52218;51.224;-2.328;2022-10-16T08:29:11;4.25;;;1.10;;
65073;SDS011;52218;51.224;-2.328;2022-10-16T08:32:55;6.75;;;1.15;;
65073;SDS011;52218;51.224;-2.328;2022-10-16T08:36:36;5.70;;;1.05;;
65073;SDS011;52218;51.224;-2.328;2022-10-16T08:40:20;8.07;;;1.50;;
65073;SDS011;52218;51.224;-2.328;2022-10-16T08:48:33;10.63;;;1.52;;
65073;SDS011;52218;51.224;-2.328;2022-10-16T08:52:25;6.13;;;1.53;;
65073;SDS011;52218;51.224;-2.328;2022-10-16T08:56:12;6.68;;;1.27;;
65073;SDS011;52218;51.224;-2.328;2022-10-16T08:59:54;4.88;;;1.08;;
65073;SDS011;52218;51.224;-2.328;2022-10-16T09:08:01;7.07;;;1.13;;
65073;SDS011;52218;51.224;-2.328;2022-10-16T09:19:45;7.53;;;1.40;;
65073;SDS011;52218;51.224;-2.328;2022-10-16T09:23:39;6.13;;;1.23;;
65073;SDS011;52218;51.224;-2.328;2022-10-16T09:27:21;8.63;;;1.35;;
65073;SDS011;52218;51.224;-2.328;2022-10-16T09:31:04;6.20;;;1.10;;
65073;SDS011;52218;51.224;-2.328;2022-10-16T09:34:53;6.30;;;1.38;;
65073;SDS011;52218;51.224;-2.328;2022-10-16T09:38:40;8.07;;;1.30;;
65073;SDS011;52218;51.224;-2.328;2022-10-16T09:42:23;5.53;;;1.33;;
65073;SDS011;52218;51.224;-2.328;2022-10-16T09:50:40;7.80;;;1.40;;
65073;SDS011;52218;51.224;-2.328;2022-10-16T09:54:16;3.83;;;0.90;;
65073;SDS011;52218;51.224;-2.328;2022-10-16T09:58:00;5.63;;;1.23;;
65073;SDS011;52218;51.224;-2.328;2022-10-16T10:01:51;8.48;;;1.20;;
65073;SDS011;52218;51.224;-2.328;2022-10-16T10:05:37;4.10;;;1.00;;
65073;SDS011;52218;51.224;-2.328;2022-10-16T10:13:03;3.42;;;1.15;;
65073;SDS011;52218;51.224;-2.328;2022-10-16T10:16:45;3.45;;;0.88;;
65073;SDS011;52218;51.224;-2.328;2022-10-16T10:20:31;4.18;;;0.95;;
65073;SDS011;52218;51.224;-2.328;2022-10-16T10:24:16;2.88;;;0.80;;
65073;SDS011;52218;51.224;-2.328;2022-10-16T10:28:08;4.35;;;1.10;;
65073;SDS011;52218;51.224;-2.328;2022-10-16T10:32:05;4.68;;;1.00;;
65073;SDS011;52218;51.224;-2.328;2022-10-16T10:36:33;6.18;;;1.25;;
65073;SDS011;52218;51.224;-2.328;2022-10-16T10:40:17;3.45;;;0.90;;
65073;SDS011;52218;51.224;-2.328;2022-10-16T10:56:02;4.18;;;0.93;;
65073;SDS011;52218;51.224;-2.328;2022-10-16T10:59:54;4.88;;;1.17;;
65073;SDS011;52218;51.224;-2.328;2022-10-16T11:07:50;3.53;;;0.90;;
65073;SDS011;52218;51.224;-2.328;2022-10-16T11:11:39;4.55;;;0.90;;
65073;SDS011;52218;51.224;-2.328;2022-10-16T11:15:29;4.68;;;0.93;;
65073;SDS011;52218;51.224;-2.328;2022-10-16T11:23:17;3.17;;;0.95;;
65073;SDS011;52218;51.224;-2.328;2022-10-16T11:27:07;4.03;;;1.02;;
65073;SDS011;52218;51.224;-2.328;2022-10-16T11:31:04;3.85;;;0.90;;
65073;SDS011;52218;51.224;-2.328;2022-10-16T11:34:50;4.95;;;1.27;;
65073;SDS011;52218;51.224;-2.328;2022-10-16T11:42:39;4.20;;;1.15;;
65073;SDS011;52218;51.224;-2.328;2022-10-16T11:46:26;4.13;;;1.10;;
65073;SDS011;52218;51.224;-2.328;2022-10-16T11:58:30;4.10;;;1.17;;
65073;SDS011;52218;51.224;-2.328;2022-10-16T12:03:03;3.42;;;1.00;;
65073;SDS011;52218;51.224;-2.328;2022-10-16T12:06:39;3.85;;;1.13;;
65073;SDS011;52218;51.224;-2.328;2022-10-16T12:10:25;5.25;;;1.20;;
65073;SDS011;52218;51.224;-2.328;2022-10-16T12:17:54;5.75;;;1.17;;
65073;SDS011;52218;51.224;-2.328;2022-10-16T12:21:37;3.67;;;0.95;;
65073;SDS011;52218;51.224;-2.328;2022-10-16T12:25:32;4.20;;;1.15;;
65073;SDS011;52218;51.224;-2.328;2022-10-16T12:33:23;5.10;;;1.30;;
65073;SDS011;52218;51.224;-2.328;2022-10-16T12:41:07;5.18;;;1.10;;
65073;SDS011;52218;51.224;-2.328;2022-10-16T12:44:50;4.88;;;1.23;;
65073;SDS011;52218;51.224;-2.328;2022-10-16T12:48:32;4.18;;;1.05;;
65073;SDS011;52218;51.224;-2.328;2022-10-16T12:52:35;4.88;;;1.10;;
65073;SDS011;52218;51.224;-2.328;2022-10-16T12:56:21;4.47;;;1.20;;
65073;SDS011;52218;51.224;-2.328;2022-10-16T13:24:15;3.90;;;1.00;;
65073;SDS011;52218;51.224;-2.328;2022-10-16T13:28:21;3.08;;;0.95;;
65073;SDS011;52218;51.224;-2.328;2022-10-16T13:32:09;3.88;;;0.88;;
65073;SDS011;52218;51.224;-2.328;2022-10-16T13:35:56;3.20;;;0.70;;
65073;SDS011;52218;51.224;-2.328;2022-10-16T13:39:38;4.63;;;1.00;;
65073;SDS011;52218;51.224;-2.328;2022-10-16T13:43:39;4.63;;;1.17;;
65073;SDS011;52218;51.224;-2.328;2022-10-16T13:47:40;3.45;;;0.90;;
65073;SDS011;52218;51.224;-2.328;2022-10-16T13:51:22;3.22;;;1.02;;
65073;SDS011;52218;51.224;-2.328;2022-10-16T13:55:11;3.75;;;1.13;;
65073;SDS011;52218;51.224;-2.328;2022-10-16T13:59:04;3.67;;;0.90;;
65073;SDS011;52218;51.224;-2.328;2022-10-16T14:02:51;4.20;;;1.17;;
65073;SDS011;52218;51.224;-2.328;2022-10-16T14:06:42;7.13;;;1.20;;
65073;SDS011;52218;51.224;-2.328;2022-10-16T14:10:27;4.13;;;1.10;;
65073;SDS011;52218;51.224;-2.328;2022-10-16T14:14:12;5.32;;;1.27;;
65073;SDS011;52218;51.224;-2.328;2022-10-16T14:17:54;3.72;;;1.00;;
65073;SDS011;52218;51.224;-2.328;2022-10-16T14:21:36;5.82;;;1.30;;
65073;SDS011;52218;51.224;-2.328;2022-10-16T14:25:26;4.82;;;1.33;;
65073;SDS011;52218;51.224;-2.328;2022-10-16T14:29:13;4.32;;;1.08;;
65073;SDS011;52218;51.224;-2.328;2022-10-16T14:33:06;4.82;;;1.20;;
65073;SDS011;52218;51.224;-2.328;2022-10-16T14:37:16;5.82;;;1.30;;
65073;SDS011;52218;51.224;-2.328;2022-10-16T14:41:08;6.13;;;1.77;;
65073;SDS011;52218;51.224;-2.328;2022-10-16T14:44:51;8.40;;;1.40;;
65073;SDS011;52218;51.224;-2.328;2022-10-16T14:48:35;5.32;;;1.00;;
65073;SDS011;52218;51.224;-2.328;2022-10-16T14:52:16;5.13;;;1.20;;
65073;SDS011;52218;51.224;-2.328;2022-10-16T14:56:05;7.18;;;1.48;;
65073;SDS011;52218;51.224;-2.328;2022-10-16T14:59:53;5.80;;;1.20;;
65073;SDS011;52218;51.224;-2.328;2022-10-16T15:03:35;5.88;;;1.30;;
65073;SDS011;52218;51.224;-2.328;2022-10-16T15:07:18;6.10;;;1.27;;
65073;SDS011;52218;51.224;-2.328;2022-10-16T15:11:00;7.68;;;1.48;;
65073;SDS011;52218;51.224;-2.328;2022-10-16T15:14:42;7.75;;;1.50;;
65073;SDS011;52218;51.224;-2.328;2022-10-16T15:18:24;8.55;;;1.67;;
65073;SDS011;52218;51.224;-2.328;2022-10-16T15:22:06;4.82;;;1.35;;
65073;SDS011;52218;51.224;-2.328;2022-10-16T15:25:51;5.93;;;1.42;;
65073;SDS011;52218;51.224;-2.328;2022-10-16T15:29:34;6.60;;;1.27;;
65073;SDS011;52218;51.224;-2.328;2022-10-16T15:33:17;5.40;;;1.10;;
65073;SDS011;52218;51.224;-2.328;2022-10-16T15:37:02;6.03;;;1.40;;
65073;SDS011;52218;51.224;-2.328;2022-10-16T15:40:45;6.57;;;1.38;;
65073;SDS011;52218;51.224;-2.328;2022-10-16T15:44:28;6.97;;;1.50;;
65073;SDS011;52218;51.224;-2.328;2022-10-16T15:48:11;5.38;;;1.38;;
65073;SDS011;52218;51.224;-2.328;2022-10-16T15:51:54;6.10;;;1.50;;
65073;SDS011;52218;51.224;-2.328;2022-10-16T15:55:36;6.38;;;1.40;;
65073;SDS011;52218;51.224;-2.328;2022-10-16T15:59:19;4.53;;;1.20;;
65073;SDS011;52218;51.224;-2.328;2022-10-16T16:03:00;9.85;;;1.80;;
65073;SDS011;52218;51.224;-2.328;2022-10-16T16:06:42;6.47;;;1.45;;
65073;SDS011;52218;51.224;-2.328;2022-10-16T16:10:26;6.75;;;1.20;;
65073;SDS011;52218;51.224;-2.328;2022-10-16T16:14:10;6.65;;;1.50;;
65073;SDS011;52218;51.224;-2.328;2022-10-16T16:17:54;5.63;;;1.55;;
65073;SDS011;52218;51.224;-2.328;2022-10-16T16:21:36;5.32;;;1.20;;
65073;SDS011;52218;51.224;-2.328;2022-10-16T16:25:18;5.78;;;1.13;;
65073;SDS011;52218;51.224;-2.328;2022-10-16T16:29:00;6.35;;;1.45;;
65073;SDS011;52218;51.224;-2.328;2022-10-16T16:32:42;5.57;;;1.70;;
65073;SDS011;52218;51.224;-2.328;2022-10-16T16:36:25;5.95;;;1.20;;
65073;SDS011;52218;51.224;-2.328;2022-10-16T16:40:07;6.32;;;1.50;;
65073;SDS011;52218;51.224;-2.328;2022-10-16T16:43:50;5.00;;;1.17;;
65073;SDS011;52218;51.224;-2.328;2022-10-16T16:47:32;5.13;;;1.20;;
65073;SDS011;52218;51.224;-2.328;2022-10-16T16:51:15;5.07;;;1.50;;
65073;SDS011;52218;51.224;-2.328;2022-10-16T16:54:59;5.60;;;1.63;;
65073;SDS011;52218;51.224;-2.328;2022-10-16T16:58:44;4.70;;;1.30;;
65073;SDS011;52218;51.224;-2.328;2022-10-16T17:02:26;4.90;;;1.30;;
65073;SDS011;52218;51.224;-2.328;2022-10-16T17:06:08;4.45;;;1.23;;
65073;SDS011;52218;51.224;-2.328;2022-10-16T17:09:51;4.05;;;1.25;;
65073;SDS011;52218;51.224;-2.328;2022-10-16T17:13:33;3.20;;;1.05;;
65073;SDS011;52218;51.224;-2.328;2022-10-16T17:17:18;3.40;;;1.00;;
65073;SDS011;52218;51.224;-2.328;2022-10-16T17:21:00;2.40;;;0.80;;
65073;SDS011;52218;51.224;-2.328;2022-10-16T17:24:47;3.33;;;0.88;;
65073;SDS011;52218;51.224;-2.328;2022-10-16T17:28:31;1.88;;;0.70;;
65073;SDS011;52218;51.224;-2.328;2022-10-16T17:32:13;1.75;;;0.60;;
65073;SDS011;52218;51.224;-2.328;2022-10-16T17:35:55;2.10;;;0.65;;
65073;SDS011;52218;51.224;-2.328;2022-10-16T17:39:39;2.45;;;0.50;;
65073;SDS011;52218;51.224;-2.328;2022-10-16T17:43:21;1.95;;;0.75;;
65073;SDS011;52218;51.224;-2.328;2022-10-16T17:47:03;3.00;;;0.60;;
65073;SDS011;52218;51.224;-2.328;2022-10-16T17:50:45;2.63;;;0.60;;
65073;SDS011;52218;51.224;-2.328;2022-10-16T17:54:27;2.53;;;0.60;;
65073;SDS011;52218;51.224;-2.328;2022-10-16T17:58:08;1.33;;;0.40;;
65073;SDS011;52218;51.224;-2.328;2022-10-16T18:01:50;1.30;;;0.55;;
65073;SDS011;52218;51.224;-2.328;2022-10-16T18:05:36;1.10;;;0.50;;
65073;SDS011;52218;51.224;-2.328;2022-10-16T18:09:18;1.42;;;0.30;;
65073;SDS011;52218;51.224;-2.328;2022-10-16T18:13:01;1.75;;;0.30;;
65073;SDS011;52218;51.224;-2.328;2022-10-16T18:16:43;0.75;;;0.30;;
65073;SDS011;52218;51.224;-2.328;2022-10-16T18:20:25;1.05;;;0.40;;
65073;SDS011;52218;51.224;-2.328;2022-10-16T18:24:07;2.17;;;0.47;;
65073;SDS011;52218;51.224;-2.328;2022-10-16T18:27:50;1.60;;;0.50;;
65073;SDS011;52218;51.224;-2.328;2022-10-16T18:31:32;0.85;;;0.40;;
65073;SDS011;52218;51.224;-2.328;2022-10-16T18:35:20;2.50;;;0.43;;
65073;SDS011;52218;51.224;-2.328;2022-10-16T18:39:04;2.42;;;0.70;;
65073;SDS011;52218;51.224;-2.328;2022-10-16T18:42:50;1.92;;;0.68;;
65073;SDS011;52218;51.224;-2.328;2022-10-16T18:46:33;3.05;;;0.60;;
65073;SDS011;52218;51.224;-2.328;2022-10-16T18:50:15;2.22;;;0.70;;
65073;SDS011;52218;51.224;-2.328;2022-10-16T18:54:01;2.65;;;0.70;;
65073;SDS011;52218;51.224;-2.328;2022-10-16T18:57:45;2.88;;;0.80;;
65073;SDS011;52218;51.224;-2.328;2022-10-16T19:01:28;2.13;;;0.68;;
65073;SDS011;52218;51.224;-2.328;2022-10-16T19:05:11;1.70;;;0.52;;
65073;SDS011;52218;51.224;-2.328;2022-10-16T19:08:56;1.70;;;0.60;;
65073;SDS011;52218;51.224;-2.328;2022-10-16T19:12:38;2.33;;;0.50;;
65073;SDS011;52218;51.224;-2.328;2022-10-16T19:16:22;1.77;;;0.50;;
65073;SDS011;52218;51.224;-2.328;2022-10-16T19:20:06;1.98;;;0.60;;
65073;SDS011;52218;51.224;-2.328;2022-10-16T19:23:52;1.35;;;0.50;;
65073;SDS011;52218;51.224;-2.328;2022-10-16T19:27:38;2.38;;;0.50;;
65073;SDS011;52218;51.224;-2.328;2022-10-16T19:31:21;2.28;;;0.50;;
65073;SDS011;52218;51.224;-2.328;2022-10-16T19:35:05;1.55;;;0.50;;
65073;SDS011;52218;51.224;-2.328;2022-10-16T19:38:57;1.45;;;0.57;;
65073;SDS011;52218;51.224;-2.328;2022-10-16T19:42:40;1.40;;;0.60;;
65073;SDS011;52218;51.224;-2.328;2022-10-16T19:46:25;1.23;;;0.50;;
65073;SDS011;52218;51.224;-2.328;2022-10-16T19:50:08;1.27;;;0.40;;
65073;SDS011;52218;51.224;-2.328;2022-10-16T19:53:57;2.95;;;0.57;;
65073;SDS011;52218;51.224;-2.328;2022-10-16T19:57:41;1.73;;;0.50;;
65073;SDS011;52218;51.224;-2.328;2022-10-16T20:01:24;1.92;;;0.57;;
65073;SDS011;52218;51.224;-2.328;2022-10-16T20:05:07;3.95;;;0.70;;
65073;SDS011;52218;51.224;-2.328;2022-10-16T20:08:50;2.45;;;0.50;;
65073;SDS011;52218;51.224;-2.328;2022-10-16T20:12:33;2.03;;;0.68;;
65073;SDS011;52218;51.224;-2.328;2022-10-16T20:16:15;4.72;;;0.63;;
65073;SDS011;52218;51.224;-2.328;2022-10-16T20:19:59;3.35;;;0.75;;
65073;SDS011;52218;51.224;-2.328;2022-10-16T20:23:41;2.90;;;0.70;;
65073;SDS011;52218;51.224;-2.328;2022-10-16T20:27:24;3.88;;;0.85;;
65073;SDS011;52218;51.224;-2.328;2022-10-16T20:31:11;3.30;;;0.60;;
65073;SDS011;52218;51.224;-2.328;2022-10-16T20:34:57;3.72;;;0.90;;
65073;SDS011;52218;51.224;-2.328;2022-10-16T20:38:43;2.53;;;0.80;;
65073;SDS011;52218;51.224;-2.328;2022-10-16T20:42:25;2.17;;;0.60;;
65073;SDS011;52218;51.224;-2.328;2022-10-16T20:46:08;2.60;;;0.60;;
65073;SDS011;52218;51.224;-2.328;2022-10-16T20:49:53;3.90;;;0.85;;
65073;SDS011;52218;51.224;-2.328;2022-10-16T20:53:35;2.85;;;0.80;;
65073;SDS011;52218;51.224;-2.328;2022-10-16T20:57:19;2.85;;;1.02;;
65073;SDS011;52218;51.224;-2.328;2022-10-16T21:01:05;4.18;;;0.60;;
65073;SDS011;52218;51.224;-2.328;2022-10-16T21:04:48;4.13;;;0.75;;
65073;SDS011;52218;51.224;-2.328;2022-10-16T21:08:33;3.95;;;0.80;;
65073;SDS011;52218;51.224;-2.328;2022-10-16T21:12:19;3.53;;;0.57;;
65073;SDS011;52218;51.224;-2.328;2022-10-16T21:16:01;2.53;;;0.60;;
65073;SDS011;52218;51.224;-2.328;2022-10-16T21:19:43;4.82;;;0.70;;
65073;SDS011;52218;51.224;-2.328;2022-10-16T21:23:25;5.72;;;1.17;;
65073;SDS011;52218;51.224;-2.328;2022-10-16T21:27:08;3.65;;;1.05;;
65073;SDS011;52218;51.224;-2.328;2022-10-16T21:30:50;2.53;;;0.70;;
65073;SDS011;52218;51.224;-2.328;2022-10-16T21:34:33;2.92;;;0.82;;
65073;SDS011;52218;51.224;-2.328;2022-10-16T21:38:15;6.35;;;0.75;;
65073;SDS011;52218;51.224;-2.328;2022-10-16T21:41:57;4.43;;;0.63;;
65073;SDS011;52218;51.224;-2.328;2022-10-16T21:45:39;4.28;;;0.70;;
65073;SDS011;52218;51.224;-2.328;2022-10-16T21:49:20;1.95;;;0.50;;
65073;SDS011;52218;51.224;-2.328;2022-10-16T21:53:02;2.72;;;0.88;;
65073;SDS011;52218;51.224;-2.328;2022-10-16T21:56:44;3.70;;;1.05;;
65073;SDS011;52218;51.224;-2.328;2022-10-16T22:00:26;2.03;;;0.70;;
65073;SDS011;52218;51.224;-2.328;2022-10-16T22:04:09;4.15;;;0.70;;
65073;SDS011;52218;51.224;-2.328;2022-10-16T22:07:52;3.53;;;0.60;;
65073;SDS011;52218;51.224;-2.328;2022-10-16T22:11:35;3.53;;;0.80;;
65073;SDS011;52218;51.224;-2.328;2022-10-16T22:15:18;3.85;;;0.73;;
65073;SDS011;52218;51.224;-2.328;2022-10-16T22:19:00;2.38;;;0.60;;
65073;SDS011;52218;51.224;-2.328;2022-10-16T22:22:43;1.52;;;0.40;;
65073;SDS011;52218;51.224;-2.328;2022-10-16T22:26:25;3.50;;;0.85;;
65073;SDS011;52218;51.224;-2.328;2022-10-16T22:30:08;5.97;;;0.77;;
65073;SDS011;52218;51.224;-2.328;2022-10-16T22:33:54;2.95;;;0.60;;
65073;SDS011;52218;51.224;-2.328;2022-10-16T22:37:36;3.22;;;0.50;;
65073;SDS011;52218;51.224;-2.328;2022-10-16T22:41:18;2.78;;;0.60;;
65073;SDS011;52218;51.224;-2.328;2022-10-16T22:45:01;2.63;;;0.70;;
65073;SDS011;52218;51.224;-2.328;2022-10-16T22:48:43;2.55;;;0.60;;
65073;SDS011;52218;51.224;-2.328;2022-10-16T22:52:25;4.07;;;1.02;;
65073;SDS011;52218;51.224;-2.328;2022-10-16T22:56:08;3.65;;;0.93;;
65073;SDS011;52218;51.224;-2.328;2022-10-16T22:59:51;4.53;;;0.85;;
65073;SDS011;52218;51.224;-2.328;2022-10-16T23:03:33;2.88;;;0.55;;
65073;SDS011;52218;51.224;-2.328;2022-10-16T23:07:15;4.68;;;0.77;;
65073;SDS011;52218;51.224;-2.328;2022-10-16T23:10:56;5.03;;;0.70;;
65073;SDS011;52218;51.224;-2.328;2022-10-16T23:14:42;3.03;;;0.60;;
65073;SDS011;52218;51.224;-2.328;2022-10-16T23:18:24;2.22;;;0.63;;
65073;SDS011;52218;51.224;-2.328;2022-10-16T23:22:06;4.00;;;0.80;;
65073;SDS011;52218;51.224;-2.328;2022-10-16T23:25:47;3.03;;;0.70;;
65073;SDS011;52218;51.224;-2.328;2022-10-16T23:29:29;4.05;;;0.70;;
65073;SDS011;52218;51.224;-2.328;2022-10-16T23:33:11;3.90;;;0.63;;
65073;SDS011;52218;51.224;-2.328;2022-10-16T23:36:53;3.55;;;0.77;;
65073;SDS011;52218;51.224;-2.328;2022-10-16T23:40:35;4.65;;;0.90;;
65073;SDS011;52218;51.224;-2.328;2022-10-16T23:44:17;3.88;;;1.08;;
65073;SDS011;52218;51.224;-2.328;2022-10-16T23:47:59;5.18;;;1.13;;
65073;SDS011;52218;51.224;-2.328;2022-10-16T23:51:41;3.47;;;0.82;;
65073;SDS011;52218;51.224;-2.328;2022-10-16T23:55:23;4.07;;;0.70;;